createdAt,value
2023-02-23T00:00:30.310Z,99.90
2023-02-23T00:03:00.415Z,99.90
2023-02-23T00:05:37.018Z,99.90
2023-02-23T00:08:04.770Z,99.90
2023-02-23T00:14:31.636Z,99.90
2023-02-23T00:16:59.011Z,99.90
2023-02-23T00:19:26.427Z,99.90
2023-02-23T00:21:54.666Z,99.90
2023-02-23T00:24:22.725Z,99.90
2023-02-23T00:26:50.220Z,99.90
2023-02-23T00:29:24.634Z,99.90
2023-02-23T00:31:52.992Z,99.90
2023-02-23T00:34:21.932Z,99.90
2023-02-23T00:36:54.792Z,99.90
2023-02-23T00:39:23.532Z,99.90
2023-02-23T00:41:52.577Z,99.90
2023-02-23T00:44:22.033Z,99.90
2023-02-23T00:46:50.580Z,99.90
2023-02-23T00:49:20.350Z,99.90
2023-02-23T00:55:55.825Z,99.90
2023-02-23T01:00:53.643Z,99.90
2023-02-23T01:03:21.127Z,99.90
2023-02-23T01:05:48.528Z,99.90
2023-02-23T01:08:16.344Z,99.90
2023-02-23T01:10:45.410Z,99.90
2023-02-23T01:13:13.455Z,99.90
2023-02-23T01:15:44.776Z,99.90
2023-02-23T01:18:12.080Z,99.90
2023-02-23T01:20:40.356Z,99.90
2023-02-23T01:23:14.630Z,99.90
2023-02-23T01:25:45.208Z,99.90
2023-02-23T01:28:12.938Z,99.90
2023-02-23T01:30:41.048Z,99.90
2023-02-23T01:33:08.865Z,99.90
2023-02-23T01:35:36.410Z,99.90
2023-02-23T01:38:04.198Z,99.90
2023-02-23T01:40:32.930Z,99.90
2023-02-23T01:43:19.979Z,99.90
2023-02-23T01:45:47.636Z,99.90
2023-02-23T01:48:23.449Z,99.90
2023-02-23T01:50:59.108Z,99.90
2023-02-23T01:53:33.041Z,99.90
2023-02-23T01:56:09.909Z,99.90
2023-02-23T01:58:41.069Z,99.90
2023-02-23T02:01:08.498Z,99.90
2023-02-23T02:03:41.822Z,99.90
2023-02-23T02:06:14.439Z,99.90
2023-02-23T02:08:47.254Z,99.90
2023-02-23T02:15:15.086Z,99.90
2023-02-23T02:18:05.905Z,99.90
2023-02-23T02:20:48.158Z,99.90
2023-02-23T02:24:14.530Z,99.90
2023-02-23T02:27:15.873Z,99.90
2023-02-23T02:30:19.972Z,99.90
2023-02-23T02:33:04.881Z,99.90
2023-02-23T02:35:42.525Z,99.90
2023-02-23T02:38:31.215Z,99.90
2023-02-23T02:41:57.254Z,99.90
2023-02-23T02:44:37.584Z,99.90
2023-02-23T02:47:19.742Z,99.90
2023-02-23T02:50:06.062Z,99.90
2023-02-23T02:52:41.239Z,99.90
2023-02-23T02:55:47.326Z,99.90
2023-02-23T02:58:18.437Z,99.90
2023-02-23T03:00:50.383Z,99.90
2023-02-23T03:03:45.176Z,99.90
2023-02-23T03:06:12.536Z,99.90
2023-02-23T03:09:34.948Z,99.90
2023-02-23T03:12:11.114Z,99.90
2023-02-23T03:15:05.069Z,99.90
2023-02-23T03:18:00.744Z,99.90
2023-02-23T03:20:33.911Z,99.90
2023-02-23T03:24:01.797Z,99.90
2023-02-23T03:26:39.651Z,99.90
2023-02-23T03:29:31.456Z,99.90
2023-02-23T03:32:12.713Z,99.90
2023-02-23T03:35:07.175Z,99.90
2023-02-23T03:37:42.790Z,99.90
2023-02-23T03:40:27.290Z,99.90
2023-02-23T03:42:59.763Z,99.90
2023-02-23T03:45:30.226Z,99.90
2023-02-23T03:48:00.385Z,99.90
2023-02-23T03:50:57.014Z,99.90
2023-02-23T03:53:38.081Z,99.90
2023-02-23T03:56:09.663Z,99.90
2023-02-23T03:58:50.903Z,99.90
2023-02-23T04:01:21.966Z,99.90
2023-02-23T04:03:53.856Z,99.90
2023-02-23T04:06:28.498Z,99.90
2023-02-23T04:09:02.653Z,99.90
2023-02-23T04:12:09.900Z,99.90
2023-02-23T04:14:49.015Z,99.90
2023-02-23T04:17:18.025Z,99.90
2023-02-23T04:23:57.230Z,99.90
2023-02-23T04:26:24.523Z,99.90
2023-02-23T04:28:51.737Z,99.90
2023-02-23T04:31:19.257Z,99.90
2023-02-23T04:33:46.772Z,99.90
2023-02-23T04:36:14.205Z,99.90
2023-02-23T04:38:41.709Z,99.90
2023-02-23T04:41:09.397Z,99.90
2023-02-23T04:43:36.635Z,99.90
2023-02-23T04:46:04.023Z,99.90
2023-02-23T04:48:31.527Z,99.90
2023-02-23T04:50:58.724Z,99.90
2023-02-23T04:53:25.988Z,99.90
2023-02-23T04:55:53.316Z,99.90
2023-02-23T04:58:20.688Z,99.90
2023-02-23T05:00:48.012Z,99.90
2023-02-23T05:03:15.750Z,99.90
2023-02-23T05:05:43.840Z,99.90
2023-02-23T05:08:11.105Z,99.90
2023-02-23T05:10:40.260Z,99.90
2023-02-23T05:13:07.914Z,99.90
2023-02-23T05:15:35.173Z,99.90
2023-02-23T05:18:02.449Z,99.90
2023-02-23T05:20:29.700Z,99.90
2023-02-23T05:22:57.003Z,99.90
2023-02-23T05:25:24.440Z,99.90
2023-02-23T05:27:51.859Z,99.90
2023-02-23T05:30:19.238Z,99.90
2023-02-23T05:32:46.920Z,99.90
2023-02-23T05:39:14.297Z,99.90
2023-02-23T05:41:41.618Z,99.90
2023-02-23T05:48:24.041Z,99.90
2023-02-23T05:50:51.320Z,99.90
2023-02-23T05:53:18.507Z,99.90
2023-02-23T05:55:45.871Z,99.90
2023-02-23T06:02:19.381Z,99.90
2023-02-23T06:04:46.700Z,99.90
2023-02-23T06:07:13.894Z,99.90
2023-02-23T06:09:42.412Z,99.90
2023-02-23T06:12:11.608Z,99.90
2023-02-23T06:14:39.187Z,99.90
2023-02-23T06:17:07.021Z,99.90
2023-02-23T06:19:34.658Z,99.90
2023-02-23T06:22:01.832Z,99.90
2023-02-23T06:36:36.080Z,99.90
2023-02-23T06:43:03.177Z,99.90
2023-02-23T06:45:30.633Z,99.90
2023-02-23T06:48:01.267Z,99.90
2023-02-23T06:50:29.724Z,99.90
2023-02-23T06:52:56.985Z,99.90
2023-02-23T06:55:24.964Z,99.90
2023-02-23T07:01:57.956Z,99.90
2023-02-23T07:04:25.592Z,99.90
2023-02-23T07:06:53.003Z,99.90
2023-02-23T07:17:32.876Z,99.90
2023-02-23T07:20:00.103Z,99.90
2023-02-23T07:22:27.464Z,99.90
2023-02-23T07:29:08.578Z,99.90
2023-02-23T07:31:35.851Z,99.90
2023-02-23T07:34:03.754Z,99.90
2023-02-23T07:36:31.262Z,99.90
2023-02-23T07:38:58.622Z,99.90
2023-02-23T07:41:25.937Z,99.90
2023-02-23T07:43:53.103Z,99.90
2023-02-23T07:46:20.387Z,99.90
2023-02-23T07:48:47.970Z,99.90
2023-02-23T07:51:16.723Z,99.90
2023-02-23T07:53:45.126Z,99.90
2023-02-23T08:00:19.896Z,99.90
2023-02-23T08:02:47.194Z,99.90
2023-02-23T08:05:14.366Z,99.90
2023-02-23T08:07:41.870Z,99.90
2023-02-23T08:10:10.086Z,99.90
2023-02-23T08:12:43.108Z,99.90
2023-02-23T08:15:12.612Z,99.90
2023-02-23T08:17:40.924Z,99.90
2023-02-23T08:20:09.595Z,99.90
2023-02-23T08:22:48.459Z,99.90
2023-02-23T08:25:18.229Z,99.90
2023-02-23T08:27:46.451Z,99.90
2023-02-23T08:30:15.897Z,99.90
2023-02-23T08:36:49.952Z,99.90
2023-02-23T08:39:17.443Z,99.90
2023-02-23T08:41:44.633Z,99.90
2023-02-23T08:44:15.530Z,99.90
2023-02-23T08:46:44.073Z,99.90
2023-02-23T08:49:12.303Z,99.90
2023-02-23T08:51:39.670Z,99.90
2023-02-23T08:54:08.073Z,99.90
2023-02-23T08:56:35.387Z,99.90
2023-02-23T09:03:02.460Z,99.90
2023-02-23T09:09:38.160Z,99.90
2023-02-23T09:12:05.641Z,99.90
2023-02-23T09:14:32.937Z,99.90
2023-02-23T09:17:00.177Z,99.90
2023-02-23T09:19:27.727Z,99.90
2023-02-23T09:21:54.981Z,99.90
2023-02-23T09:24:22.538Z,99.90
2023-02-23T09:26:49.901Z,99.90
2023-02-23T09:29:17.145Z,99.90
2023-02-23T09:31:44.394Z,99.90
2023-02-23T09:34:11.725Z,99.90
2023-02-23T09:36:39.294Z,99.90
2023-02-23T09:39:06.503Z,99.90
2023-02-23T09:45:58.881Z,99.90
2023-02-23T09:48:28.932Z,99.90
2023-02-23T09:51:02.311Z,99.90
2023-02-23T09:54:00.121Z,99.90
2023-02-23T10:00:27.769Z,99.90
2023-02-23T10:03:34.508Z,99.90
2023-02-23T10:06:09.297Z,99.90
2023-02-23T10:08:56.108Z,99.90
2023-02-23T10:11:41.943Z,99.90
2023-02-23T10:14:39.128Z,99.90
2023-02-23T10:17:12.457Z,99.90
2023-02-23T10:20:30.475Z,99.90
2023-02-23T10:23:04.904Z,99.90
2023-02-23T10:25:40.327Z,99.90
2023-02-23T10:28:21.181Z,99.90
2023-02-23T10:30:50.684Z,99.90
2023-02-23T10:33:33.109Z,99.90
2023-02-23T10:36:31.650Z,99.90
2023-02-23T10:38:59.497Z,99.90
2023-02-23T10:41:26.693Z,99.90
2023-02-23T10:43:54.040Z,99.90
2023-02-23T10:50:48.654Z,99.90
2023-02-23T10:57:33.622Z,99.90
2023-02-23T11:04:25.459Z,99.90
2023-02-23T11:07:11.987Z,99.90
2023-02-23T11:09:47.027Z,99.90
2023-02-23T11:12:26.525Z,99.90
2023-02-23T11:14:57.568Z,99.90
2023-02-23T11:17:36.771Z,99.90
2023-02-23T11:20:18.484Z,99.90
2023-02-23T11:22:46.183Z,99.90
2023-02-23T11:25:28.303Z,99.90
2023-02-23T11:27:57.782Z,99.90
2023-02-23T11:30:37.328Z,99.90
2023-02-23T11:33:07.667Z,99.90
2023-02-23T11:35:35.467Z,99.90
2023-02-23T11:38:21.341Z,99.90
2023-02-23T11:41:03.721Z,99.90
2023-02-23T11:47:44.860Z,99.50
2023-02-23T11:50:32.063Z,97.70
2023-02-23T11:53:16.909Z,96.90
2023-02-23T11:55:53.905Z,95.40
2023-02-23T11:58:37.100Z,94.00
2023-02-23T12:01:10.328Z,93.20
2023-02-23T12:03:46.060Z,92.30
2023-02-23T12:06:26.446Z,91.90
2023-02-23T12:08:56.685Z,90.30
2023-02-23T12:11:29.250Z,87.90
2023-02-23T12:14:16.882Z,86.60
2023-02-23T12:16:53.626Z,85.20
2023-02-23T12:19:37.151Z,83.80
2023-02-23T12:26:19.986Z,82.30
2023-02-23T12:29:06.217Z,81.70
2023-02-23T12:31:57.688Z,81.50
2023-02-23T12:34:47.656Z,80.90
2023-02-23T12:37:18.005Z,80.60
2023-02-23T12:39:54.736Z,80.70
2023-02-23T12:42:50.455Z,81.50
2023-02-23T12:45:53.696Z,82.70
2023-02-23T12:48:50.384Z,81.90
2023-02-23T12:51:39.763Z,81.60
2023-02-23T12:54:17.992Z,80.60
2023-02-23T12:57:00.636Z,80.40
2023-02-23T13:00:11.553Z,79.50
2023-02-23T13:03:12.673Z,79.80
2023-02-23T13:06:18.987Z,79.60
2023-02-23T13:09:26.225Z,79.40
2023-02-23T13:12:25.407Z,78.60
2023-02-23T13:19:38.106Z,79.30
2023-02-23T13:22:21.830Z,79.40
2023-02-23T13:24:54.081Z,81.70
2023-02-23T13:27:40.572Z,81.20
2023-02-23T13:30:12.539Z,81.20
2023-02-23T13:36:48.236Z,81.90
2023-02-23T13:40:01.197Z,83.30
2023-02-23T13:42:53.770Z,82.50
2023-02-23T13:45:51.348Z,83.90
2023-02-23T13:48:57.288Z,83.30
2023-02-23T13:51:44.987Z,84.70
2023-02-23T13:54:15.202Z,83.40
2023-02-23T13:56:54.834Z,84.50
2023-02-23T13:59:30.243Z,84.80
2023-02-23T14:02:22.633Z,84.90
2023-02-23T14:05:06.996Z,86.20
2023-02-23T14:07:42.991Z,84.70
2023-02-23T14:10:21.991Z,86.20
2023-02-23T14:13:27.838Z,85.80
2023-02-23T14:16:17.781Z,86.90
2023-02-23T14:18:54.205Z,86.00
2023-02-23T14:21:37.576Z,85.10
2023-02-23T14:24:29.395Z,83.20
2023-02-23T14:27:01.908Z,82.90
2023-02-23T14:29:31.533Z,82.10
2023-02-23T14:32:11.268Z,81.60
2023-02-23T14:34:57.335Z,80.80
2023-02-23T14:37:41.253Z,80.70
2023-02-23T14:40:31.880Z,80.50
2023-02-23T14:43:03.801Z,80.10
2023-02-23T14:45:39.112Z,79.70
2023-02-23T14:48:12.467Z,79.30
2023-02-23T14:50:40.708Z,81.00
2023-02-23T14:53:19.805Z,81.70
2023-02-23T14:55:47.294Z,82.70
2023-02-23T14:58:31.551Z,83.40
2023-02-23T15:05:17.061Z,85.80
2023-02-23T15:07:44.987Z,88.10
2023-02-23T15:10:26.294Z,88.50
2023-02-23T15:12:54.616Z,89.50
2023-02-23T15:15:26.344Z,89.80
2023-02-23T15:17:59.883Z,90.10
2023-02-23T15:23:05.808Z,90.50
2023-02-23T15:29:33.996Z,91.00
2023-02-23T15:32:30.874Z,91.40
2023-02-23T15:34:58.325Z,91.60
2023-02-23T15:40:22.591Z,91.70
2023-02-23T15:42:58.391Z,92.20
2023-02-23T15:45:35.915Z,92.20
2023-02-23T15:48:08.764Z,92.30
2023-02-23T15:50:43.783Z,92.40
2023-02-23T15:53:26.604Z,92.60
2023-02-23T15:55:57.861Z,92.80
2023-02-23T15:58:31.245Z,92.70
2023-02-23T16:01:10.522Z,92.60
2023-02-23T16:03:41.911Z,92.80
2023-02-23T16:06:22.964Z,92.90
2023-02-23T16:09:01.581Z,93.20
2023-02-23T16:11:35.561Z,93.30
2023-02-23T16:14:14.559Z,93.40
2023-02-23T16:16:41.945Z,93.60
2023-02-23T16:19:14.699Z,93.90
2023-02-23T16:21:42.053Z,93.90
2023-02-23T16:24:16.772Z,94.20
2023-02-23T16:27:01.534Z,94.30
2023-02-23T16:29:39.605Z,94.10
2023-02-23T16:32:19.358Z,94.10
2023-02-23T16:35:01.810Z,94.30
2023-02-23T16:37:29.518Z,94.30
2023-02-23T16:39:56.910Z,94.40
2023-02-23T16:42:32.882Z,94.80
2023-02-23T16:45:00.893Z,94.90
2023-02-23T16:47:47.147Z,94.90
2023-02-23T16:50:21.267Z,95.20
2023-02-23T16:52:52.124Z,95.40
2023-02-23T16:59:19.175Z,95.30
2023-02-23T17:01:46.479Z,95.70
2023-02-23T17:08:19.696Z,95.80
2023-02-23T17:10:51.660Z,96.10
2023-02-23T17:13:26.212Z,96.20
2023-02-23T17:15:55.927Z,96.40
2023-02-23T17:18:28.408Z,96.50
2023-02-23T17:25:01.407Z,96.60
2023-02-23T17:27:28.699Z,96.80
2023-02-23T17:29:57.319Z,97.10
2023-02-23T17:32:24.749Z,97.20
2023-02-23T17:34:52.111Z,97.40
2023-02-23T17:37:19.340Z,97.50
2023-02-23T17:39:46.969Z,97.50
2023-02-23T17:42:14.158Z,97.60
2023-02-23T17:44:41.601Z,97.80
2023-02-23T17:47:09.396Z,97.80
2023-02-23T17:49:37.002Z,98.00
2023-02-23T17:52:04.413Z,98.20
2023-02-23T17:54:31.747Z,98.30
2023-02-23T17:56:58.933Z,98.50
2023-02-23T17:59:26.256Z,98.60
2023-02-23T18:01:53.446Z,98.60
2023-02-23T18:04:20.699Z,98.60
2023-02-23T18:06:47.949Z,98.50
2023-02-23T18:13:14.378Z,98.80
2023-02-23T18:15:41.663Z,98.90
2023-02-23T18:18:09.075Z,99.10
2023-02-23T18:20:36.365Z,99.20
2023-02-23T18:23:03.623Z,99.40
2023-02-23T18:25:31.092Z,99.30
2023-02-23T18:27:58.310Z,99.60
2023-02-23T18:30:26.685Z,99.70
2023-02-23T18:32:58.661Z,99.80
2023-02-23T18:35:26.330Z,99.90
2023-02-23T18:37:53.609Z,99.90
2023-02-23T18:40:21.038Z,99.90
2023-02-23T18:42:49.785Z,99.90
2023-02-23T18:45:17.432Z,99.90
2023-02-23T18:47:44.721Z,99.90
2023-02-23T18:50:12.858Z,99.90
2023-02-23T18:52:40.371Z,99.90
2023-02-23T18:55:08.791Z,99.90
2023-02-23T18:57:35.913Z,99.90
2023-02-23T19:00:06.487Z,99.90
2023-02-23T19:02:33.777Z,99.90
2023-02-23T19:05:01.443Z,99.90
2023-02-23T19:07:32.505Z,99.90
2023-02-23T19:09:59.897Z,99.90
2023-02-23T19:12:30.033Z,99.90
2023-02-23T19:14:58.556Z,99.90
2023-02-23T19:17:28.124Z,99.90
2023-02-23T19:19:56.335Z,99.90
2023-02-23T19:22:23.770Z,99.90
2023-02-23T19:24:51.223Z,99.90
2023-02-23T19:27:19.444Z,99.90
2023-02-23T19:29:47.287Z,99.90
2023-02-23T19:32:16.630Z,99.90
2023-02-23T19:34:45.029Z,99.90
2023-02-23T19:37:12.887Z,99.90
2023-02-23T19:43:47.276Z,99.90
2023-02-23T19:46:17.502Z,99.90
2023-02-23T19:48:48.873Z,99.90
2023-02-23T19:51:16.440Z,99.90
2023-02-23T19:53:43.690Z,99.90
2023-02-23T19:56:13.979Z,99.90
2023-02-23T20:06:43.767Z,99.90
2023-02-23T20:09:11.780Z,99.90
2023-02-23T20:11:39.456Z,99.90
2023-02-23T20:14:07.325Z,99.90
2023-02-23T20:16:35.956Z,99.90
2023-02-23T20:19:03.817Z,99.90
2023-02-23T20:21:31.394Z,99.90
2023-02-23T20:23:59.184Z,99.90
2023-02-23T20:26:31.822Z,99.90
2023-02-23T20:28:59.015Z,99.90
2023-02-23T20:31:30.811Z,99.90
2023-02-23T20:34:02.703Z,99.90
2023-02-23T20:36:30.018Z,99.90
2023-02-23T20:38:57.205Z,99.90
2023-02-23T20:41:24.679Z,99.90
2023-02-23T20:43:52.024Z,99.90
2023-02-23T20:46:20.024Z,99.90
2023-02-23T20:48:47.550Z,99.90
2023-02-23T20:51:17.193Z,99.90
2023-02-23T20:53:47.236Z,99.90
2023-02-23T20:56:18.464Z,99.90
2023-02-23T20:58:46.441Z,99.90
2023-02-23T21:01:20.862Z,99.90
2023-02-23T21:03:56.557Z,99.90
2023-02-23T21:06:26.745Z,99.90
2023-02-23T21:08:55.409Z,99.90
2023-02-23T21:15:30.532Z,99.90
2023-02-23T21:17:59.462Z,99.90
2023-02-23T21:20:27.091Z,99.90
2023-02-23T21:22:55.768Z,99.90
2023-02-23T21:25:26.972Z,99.90
2023-02-23T21:27:54.572Z,99.90
2023-02-23T21:30:25.321Z,99.90
2023-02-23T21:32:54.245Z,99.90
2023-02-23T21:35:21.761Z,99.90
2023-02-23T21:37:51.810Z,99.90
2023-02-23T21:40:20.139Z,99.90
2023-02-23T21:42:49.554Z,99.90
2023-02-23T21:45:18.268Z,99.90
2023-02-23T21:47:49.120Z,99.90
2023-02-23T21:50:19.668Z,99.90
2023-02-23T21:52:47.963Z,99.90
2023-02-23T21:55:21.548Z,99.90
2023-02-23T21:57:50.223Z,99.90
2023-02-23T22:00:17.782Z,99.90
2023-02-23T22:02:45.397Z,99.90
2023-02-23T22:05:15.463Z,99.90
2023-02-23T22:07:49.844Z,99.90
2023-02-23T22:10:20.810Z,99.90
2023-02-23T22:12:48.628Z,99.90
2023-02-23T22:15:16.281Z,99.90
2023-02-23T22:17:44.384Z,99.90
2023-02-23T22:20:12.532Z,99.90
2023-02-23T22:22:39.727Z,99.90
2023-02-23T22:25:08.390Z,99.90
2023-02-23T22:27:35.827Z,99.90
2023-02-23T22:30:03.480Z,99.90
2023-02-23T22:32:31.114Z,99.90
2023-02-23T22:34:59.973Z,99.90
2023-02-23T22:37:28.082Z,99.90
2023-02-23T22:39:56.756Z,99.90
2023-02-23T22:42:24.209Z,99.90
2023-02-23T22:44:51.671Z,99.90
2023-02-23T22:47:18.884Z,99.90
2023-02-23T22:49:47.569Z,99.90
2023-02-23T22:52:14.976Z,99.90
2023-02-23T22:54:42.408Z,99.90
2023-02-23T22:57:09.697Z,99.90
2023-02-23T22:59:37.585Z,99.90
2023-02-23T23:02:04.924Z,99.90
2023-02-23T23:04:32.543Z,99.90
2023-02-23T23:06:59.915Z,99.90
2023-02-23T23:09:27.114Z,99.90
2023-02-23T23:11:54.304Z,99.90
2023-02-23T23:14:21.548Z,99.90
2023-02-23T23:16:48.882Z,99.90
2023-02-23T23:19:21.369Z,99.90
2023-02-23T23:21:48.693Z,99.90
2023-02-23T23:28:22.309Z,99.90
2023-02-23T23:30:49.812Z,99.90
2023-02-23T23:33:17.045Z,99.90
2023-02-23T23:35:44.535Z,99.90
2023-02-23T23:38:11.761Z,99.90
2023-02-23T23:40:38.989Z,99.90
2023-02-23T23:43:06.213Z,99.90
2023-02-23T23:45:33.727Z,99.90
2023-02-23T23:48:00.951Z,99.90
2023-02-23T23:50:28.330Z,99.90
2023-02-23T23:52:56.018Z,99.90
2023-02-23T23:55:23.304Z,99.90
2023-02-23T23:57:50.827Z,99.90
